sensor_id;sensor_type;location;lat;lon;timestamp;pressure;altitude;pressure_sealevel;temperature;humidity
19286;BME280;9776;50.798;6.430;2023-03-26T00:01:46;99433.00;;;10.38;57.75
19286;BME280;9776;50.798;6.430;2023-03-26T00:04:14;99430.34;;;10.38;57.84
19286;BME280;9776;50.798;6.430;2023-03-26T00:06:46;99443.22;;;10.41;58.05
19286;BME280;9776;50.798;6.430;2023-03-26T00:09:15;99435.28;;;10.41;58.21
19286;BME280;9776;50.798;6.430;2023-03-26T00:11:42;99432.00;;;10.39;58.17
19286;BME280;9776;50.798;6.430;2023-03-26T00:14:12;99435.00;;;10.36;58.48
19286;BME280;9776;50.798;6.430;2023-03-26T00:16:42;99431.69;;;10.34;58.69
19286;BME280;9776;50.798;6.430;2023-03-26T00:19:10;99435.31;;;10.33;58.79
19286;BME280;9776;50.798;6.430;2023-03-26T00:21:38;99425.13;;;10.30;59.03
19286;BME280;9776;50.798;6.430;2023-03-26T00:24:08;99425.94;;;10.30;59.19
19286;BME280;9776;50.798;6.430;2023-03-26T00:26:36;99423.94;;;10.32;58.90
19286;BME280;9776;50.798;6.430;2023-03-26T00:29:05;99428.72;;;10.29;59.35
19286;BME280;9776;50.798;6.430;2023-03-26T00:31:36;99422.00;;;10.26;59.60
19286;BME280;9776;50.798;6.430;2023-03-26T00:34:04;99425.94;;;10.22;59.60
19286;BME280;9776;50.798;6.430;2023-03-26T00:36:31;99425.28;;;10.20;59.74
19286;BME280;9776;50.798;6.430;2023-03-26T00:39:00;99415.91;;;10.17;59.95
19286;BME280;9776;50.798;6.430;2023-03-26T00:41:30;99405.69;;;10.14;60.08
19286;BME280;9776;50.798;6.430;2023-03-26T00:43:57;99415.72;;;10.11;59.99
19286;BME280;9776;50.798;6.430;2023-03-26T00:46:28;99417.72;;;10.09;60.50
19286;BME280;9776;50.798;6.430;2023-03-26T00:48:57;99410.78;;;10.08;60.29
19286;BME280;9776;50.798;6.430;2023-03-26T00:51:24;99405.84;;;10.05;60.48
19286;BME280;9776;50.798;6.430;2023-03-26T00:53:52;99408.34;;;10.06;60.35
19286;BME280;9776;50.798;6.430;2023-03-26T00:56:19;99408.63;;;10.11;60.41
19286;BME280;9776;50.798;6.430;2023-03-26T00:58:45;99399.13;;;10.18;60.25
19286;BME280;9776;50.798;6.430;2023-03-26T01:01:17;99393.31;;;10.23;60.22
19286;BME280;9776;50.798;6.430;2023-03-26T01:03:45;99392.13;;;10.34;59.83
19286;BME280;9776;50.798;6.430;2023-03-26T01:06:17;99386.50;;;10.37;59.81
19286;BME280;9776;50.798;6.430;2023-03-26T01:08:53;99383.53;;;10.40;59.75
19286;BME280;9776;50.798;6.430;2023-03-26T01:11:26;99377.75;;;10.44;59.74
19286;BME280;9776;50.798;6.430;2023-03-26T01:13:55;99369.31;;;10.49;59.59
19286;BME280;9776;50.798;6.430;2023-03-26T01:16:25;99371.59;;;10.52;59.33
19286;BME280;9776;50.798;6.430;2023-03-26T01:18:53;99367.84;;;10.46;59.48
19286;BME280;9776;50.798;6.430;2023-03-26T01:21:26;99369.00;;;10.44;59.45
19286;BME280;9776;50.798;6.430;2023-03-26T01:23:57;99358.47;;;10.44;59.38
19286;BME280;9776;50.798;6.430;2023-03-26T01:26:37;99362.56;;;10.46;59.42
19286;BME280;9776;50.798;6.430;2023-03-26T01:29:12;99358.59;;;10.50;59.20
19286;BME280;9776;50.798;6.430;2023-03-26T01:31:51;99356.41;;;10.54;58.84
19286;BME280;9776;50.798;6.430;2023-03-26T01:34:24;99359.25;;;10.52;58.86
19286;BME280;9776;50.798;6.430;2023-03-26T01:37:04;99345.69;;;10.55;58.62
19286;BME280;9776;50.798;6.430;2023-03-26T01:39:41;99353.75;;;10.62;58.72
19286;BME280;9776;50.798;6.430;2023-03-26T01:42:16;99340.19;;;10.65;58.57
19286;BME280;9776;50.798;6.430;2023-03-26T01:44:49;99341.00;;;10.65;58.28
19286;BME280;9776;50.798;6.430;2023-03-26T01:47:18;99342.47;;;10.68;58.44
19286;BME280;9776;50.798;6.430;2023-03-26T01:49:46;99334.41;;;10.69;58.35
19286;BME280;9776;50.798;6.430;2023-03-26T01:52:16;99328.50;;;10.67;58.16
19286;BME280;9776;50.798;6.430;2023-03-26T01:54:45;99332.94;;;10.67;58.25
19286;BME280;9776;50.798;6.430;2023-03-26T01:57:16;99327.94;;;10.72;58.13
19286;BME280;9776;50.798;6.430;2023-03-26T02:00:12;99322.38;;;10.67;57.90
19286;BME280;9776;50.798;6.430;2023-03-26T02:02:51;99313.09;;;10.71;57.89
19286;BME280;9776;50.798;6.430;2023-03-26T02:05:23;99311.13;;;10.73;57.90
19286;BME280;9776;50.798;6.430;2023-03-26T02:07:54;99306.00;;;10.71;58.01
19286;BME280;9776;50.798;6.430;2023-03-26T02:10:26;99308.78;;;10.78;57.67
19286;BME280;9776;50.798;6.430;2023-03-26T02:12:54;99291.28;;;10.77;57.74
19286;BME280;9776;50.798;6.430;2023-03-26T02:15:21;99289.00;;;10.74;58.08
19286;BME280;9776;50.798;6.430;2023-03-26T02:17:48;99280.38;;;10.80;57.73
19286;BME280;9776;50.798;6.430;2023-03-26T02:20:17;99277.59;;;10.81;57.71
19286;BME280;9776;50.798;6.430;2023-03-26T02:22:46;99270.31;;;10.83;57.76
19286;BME280;9776;50.798;6.430;2023-03-26T02:25:15;99265.22;;;10.82;57.67
19286;BME280;9776;50.798;6.430;2023-03-26T02:27:45;99269.94;;;10.87;57.49
19286;BME280;9776;50.798;6.430;2023-03-26T02:30:14;99262.56;;;10.82;57.76
19286;BME280;9776;50.798;6.430;2023-03-26T02:32:41;99250.53;;;10.79;57.87
19286;BME280;9776;50.798;6.430;2023-03-26T02:35:09;99250.00;;;10.84;57.76
19286;BME280;9776;50.798;6.430;2023-03-26T02:37:36;99254.28;;;10.85;57.59
19286;BME280;9776;50.798;6.430;2023-03-26T02:40:04;99253.00;;;10.81;57.78
19286;BME280;9776;50.798;6.430;2023-03-26T02:42:35;99250.00;;;10.84;57.97
19286;BME280;9776;50.798;6.430;2023-03-26T02:45:04;99244.09;;;10.82;57.78
19286;BME280;9776;50.798;6.430;2023-03-26T02:47:32;99247.09;;;10.79;58.07
19286;BME280;9776;50.798;6.430;2023-03-26T02:49:59;99240.88;;;10.72;58.24
19286;BME280;9776;50.798;6.430;2023-03-26T02:52:28;99236.94;;;10.68;58.27
19286;BME280;9776;50.798;6.430;2023-03-26T02:54:54;99231.66;;;10.68;58.22
19286;BME280;9776;50.798;6.430;2023-03-26T02:57:21;99227.94;;;10.77;58.20
19286;BME280;9776;50.798;6.430;2023-03-26T02:59:48;99222.97;;;10.82;58.20
19286;BME280;9776;50.798;6.430;2023-03-26T03:02:18;99217.16;;;10.87;58.03
19286;BME280;9776;50.798;6.430;2023-03-26T03:04:47;99215.97;;;10.89;58.10
19286;BME280;9776;50.798;6.430;2023-03-26T03:07:13;99205.53;;;10.96;58.24
19286;BME280;9776;50.798;6.430;2023-03-26T03:09:40;99200.16;;;11.04;57.89
19286;BME280;9776;50.798;6.430;2023-03-26T03:12:07;99198.16;;;11.06;58.11
19286;BME280;9776;50.798;6.430;2023-03-26T03:14:34;99181.81;;;11.10;57.89
19286;BME280;9776;50.798;6.430;2023-03-26T03:17:02;99193.63;;;11.14;58.15
19286;BME280;9776;50.798;6.430;2023-03-26T03:19:30;99187.34;;;11.15;58.35
19286;BME280;9776;50.798;6.430;2023-03-26T03:21:56;99181.88;;;11.17;58.27
19286;BME280;9776;50.798;6.430;2023-03-26T03:24:23;99165.88;;;11.18;58.61
19286;BME280;9776;50.798;6.430;2023-03-26T03:26:51;99167.88;;;11.16;58.67
19286;BME280;9776;50.798;6.430;2023-03-26T03:29:20;99168.66;;;11.17;58.82
19286;BME280;9776;50.798;6.430;2023-03-26T03:31:47;99167.03;;;11.16;58.87
19286;BME280;9776;50.798;6.430;2023-03-26T03:34:14;99164.13;;;11.11;58.92
19286;BME280;9776;50.798;6.430;2023-03-26T03:36:42;99157.84;;;11.12;59.03
19286;BME280;9776;50.798;6.430;2023-03-26T03:39:13;99157.75;;;11.05;59.28
19286;BME280;9776;50.798;6.430;2023-03-26T03:41:39;99140.63;;;11.01;59.35
19286;BME280;9776;50.798;6.430;2023-03-26T03:44:06;99136.06;;;10.95;59.61
19286;BME280;9776;50.798;6.430;2023-03-26T03:46:33;99132.81;;;10.93;59.74
19286;BME280;9776;50.798;6.430;2023-03-26T03:49:00;99128.88;;;10.89;59.88
19286;BME280;9776;50.798;6.430;2023-03-26T03:51:26;99135.50;;;10.85;59.86
19286;BME280;9776;50.798;6.430;2023-03-26T03:53:54;99130.88;;;10.87;60.05
19286;BME280;9776;50.798;6.430;2023-03-26T03:56:21;99117.69;;;10.87;60.18
19286;BME280;9776;50.798;6.430;2023-03-26T03:58:50;99118.88;;;10.85;60.17
19286;BME280;9776;50.798;6.430;2023-03-26T04:01:17;99118.41;;;10.81;60.33
19286;BME280;9776;50.798;6.430;2023-03-26T04:03:47;99118.28;;;10.74;60.45
19286;BME280;9776;50.798;6.430;2023-03-26T04:06:14;99112.84;;;10.76;60.43
19286;BME280;9776;50.798;6.430;2023-03-26T04:08:43;99111.47;;;10.80;60.57
19286;BME280;9776;50.798;6.430;2023-03-26T04:11:12;99104.84;;;10.84;60.48
19286;BME280;9776;50.798;6.430;2023-03-26T04:13:38;99098.38;;;10.87;60.43
19286;BME280;9776;50.798;6.430;2023-03-26T04:16:05;99101.19;;;10.85;60.58
19286;BME280;9776;50.798;6.430;2023-03-26T04:18:32;99097.66;;;10.78;60.65
19286;BME280;9776;50.798;6.430;2023-03-26T04:20:59;99086.44;;;10.61;61.07
19286;BME280;9776;50.798;6.430;2023-03-26T04:23:27;99088.25;;;10.61;61.25
19286;BME280;9776;50.798;6.430;2023-03-26T04:25:55;99082.22;;;10.52;61.50
19286;BME280;9776;50.798;6.430;2023-03-26T04:28:27;99080.47;;;10.45;61.81
19286;BME280;9776;50.798;6.430;2023-03-26T04:30:58;99081.56;;;10.36;62.08
19286;BME280;9776;50.798;6.430;2023-03-26T04:33:26;99071.25;;;10.26;62.32
19286;BME280;9776;50.798;6.430;2023-03-26T04:35:53;99072.78;;;10.20;62.45
19286;BME280;9776;50.798;6.430;2023-03-26T04:38:21;99067.88;;;10.17;62.77
19286;BME280;9776;50.798;6.430;2023-03-26T04:40:48;99053.84;;;10.17;62.74
19286;BME280;9776;50.798;6.430;2023-03-26T04:43:15;99050.03;;;10.19;62.93
19286;BME280;9776;50.798;6.430;2023-03-26T04:45:44;99042.69;;;10.15;63.08
19286;BME280;9776;50.798;6.430;2023-03-26T04:48:12;99027.69;;;10.07;63.55
19286;BME280;9776;50.798;6.430;2023-03-26T04:50:40;99019.78;;;10.07;63.66
19286;BME280;9776;50.798;6.430;2023-03-26T04:53:09;99018.41;;;10.19;63.63
19286;BME280;9776;50.798;6.430;2023-03-26T04:55:41;99023.41;;;10.14;63.61
19286;BME280;9776;50.798;6.430;2023-03-26T04:58:10;99009.16;;;10.01;63.97
19286;BME280;9776;50.798;6.430;2023-03-26T05:00:38;98997.44;;;10.03;64.19
19286;BME280;9776;50.798;6.430;2023-03-26T05:03:08;98986.97;;;10.18;63.82
19286;BME280;9776;50.798;6.430;2023-03-26T05:05:35;98987.34;;;10.30;63.77
19286;BME280;9776;50.798;6.430;2023-03-26T05:08:02;98973.06;;;10.39;63.40
19286;BME280;9776;50.798;6.430;2023-03-26T05:10:30;98968.06;;;10.44;63.17
19286;BME280;9776;50.798;6.430;2023-03-26T05:12:56;98970.97;;;10.49;63.60
19286;BME280;9776;50.798;6.430;2023-03-26T05:15:23;98975.63;;;10.47;63.75
19286;BME280;9776;50.798;6.430;2023-03-26T05:17:49;98969.97;;;10.50;64.08
19286;BME280;9776;50.798;6.430;2023-03-26T05:20:20;98977.16;;;10.56;63.93
19286;BME280;9776;50.798;6.430;2023-03-26T05:22:47;98969.78;;;10.51;64.16
19286;BME280;9776;50.798;6.430;2023-03-26T05:25:15;98969.78;;;10.51;64.25
19286;BME280;9776;50.798;6.430;2023-03-26T05:27:42;98969.44;;;10.54;64.48
19286;BME280;9776;50.798;6.430;2023-03-26T05:30:12;98968.06;;;10.58;64.50
19286;BME280;9776;50.798;6.430;2023-03-26T05:32:38;98967.50;;;10.48;64.90
19286;BME280;9776;50.798;6.430;2023-03-26T05:35:06;98963.53;;;10.52;64.97
19286;BME280;9776;50.798;6.430;2023-03-26T05:37:35;98952.59;;;10.55;64.88
19286;BME280;9776;50.798;6.430;2023-03-26T05:40:04;98942.50;;;10.59;65.16
19286;BME280;9776;50.798;6.430;2023-03-26T05:42:36;98931.75;;;10.60;65.15
19286;BME280;9776;50.798;6.430;2023-03-26T05:45:03;98941.94;;;10.63;65.26
19286;BME280;9776;50.798;6.430;2023-03-26T05:47:30;98940.75;;;10.66;65.15
19286;BME280;9776;50.798;6.430;2023-03-26T05:49:56;98937.13;;;10.67;65.33
19286;BME280;9776;50.798;6.430;2023-03-26T05:52:23;98931.03;;;10.66;65.27
19286;BME280;9776;50.798;6.430;2023-03-26T05:54:51;98926.31;;;10.62;65.44
19286;BME280;9776;50.798;6.430;2023-03-26T05:57:18;98928.31;;;10.60;65.45
19286;BME280;9776;50.798;6.430;2023-03-26T05:59:46;98919.94;;;10.56;65.55
19286;BME280;9776;50.798;6.430;2023-03-26T06:02:13;98916.66;;;10.54;65.75
19286;BME280;9776;50.798;6.430;2023-03-26T06:04:40;98915.03;;;10.53;65.92
19286;BME280;9776;50.798;6.430;2023-03-26T06:07:07;98914.22;;;10.53;65.84
19286;BME280;9776;50.798;6.430;2023-03-26T06:09:34;98911.75;;;10.51;65.84
19286;BME280;9776;50.798;6.430;2023-03-26T06:12:03;98912.94;;;10.49;66.14
19286;BME280;9776;50.798;6.430;2023-03-26T06:14:30;98906.22;;;10.46;66.20
19286;BME280;9776;50.798;6.430;2023-03-26T06:16:57;98902.13;;;10.44;66.16
19286;BME280;9776;50.798;6.430;2023-03-26T06:19:24;98899.50;;;10.44;66.19
19286;BME280;9776;50.798;6.430;2023-03-26T06:21:51;98895.41;;;10.41;66.42
19286;BME280;9776;50.798;6.430;2023-03-26T06:24:18;98892.13;;;10.39;66.61
19286;BME280;9776;50.798;6.430;2023-03-26T06:26:45;98901.22;;;10.37;66.64
19286;BME280;9776;50.798;6.430;2023-03-26T06:29:13;98889.66;;;10.38;66.93
19286;BME280;9776;50.798;6.430;2023-03-26T06:31:40;98886.78;;;10.33;66.96
19286;BME280;9776;50.798;6.430;2023-03-26T06:34:07;98889.66;;;10.38;67.02
19286;BME280;9776;50.798;6.430;2023-03-26T06:36:33;98880.78;;;10.39;66.99
19286;BME280;9776;50.798;6.430;2023-03-26T06:39:01;98881.03;;;10.44;67.11
19286;BME280;9776;50.798;6.430;2023-03-26T06:41:27;98873.38;;;10.49;67.05
19286;BME280;9776;50.798;6.430;2023-03-26T06:43:54;98866.09;;;10.51;67.21
19286;BME280;9776;50.798;6.430;2023-03-26T06:46:22;98867.16;;;10.56;67.17
19286;BME280;9776;50.798;6.430;2023-03-26T06:48:49;98869.44;;;10.59;67.09
19286;BME280;9776;50.798;6.430;2023-03-26T06:51:17;98870.25;;;10.60;67.26
19286;BME280;9776;50.798;6.430;2023-03-26T06:53:44;98865.19;;;10.58;67.46
19286;BME280;9776;50.798;6.430;2023-03-26T06:56:10;98857.44;;;10.57;67.48
19286;BME280;9776;50.798;6.430;2023-03-26T06:58:37;98859.09;;;10.58;67.50
19286;BME280;9776;50.798;6.430;2023-03-26T07:01:04;98860.91;;;10.57;67.56
19286;BME280;9776;50.798;6.430;2023-03-26T07:03:32;98858.25;;;10.57;67.49
19286;BME280;9776;50.798;6.430;2023-03-26T07:05:59;98850.91;;;10.53;67.76
19286;BME280;9776;50.798;6.430;2023-03-26T07:08:25;98849.28;;;10.52;67.68
19286;BME280;9776;50.798;6.430;2023-03-26T07:10:52;98852.09;;;10.50;67.75
19286;BME280;9776;50.798;6.430;2023-03-26T07:13:19;98839.34;;;10.54;67.78
19286;BME280;9776;50.798;6.430;2023-03-26T07:15:47;98836.53;;;10.55;67.71
19286;BME280;9776;50.798;6.430;2023-03-26T07:18:14;98843.63;;;10.55;67.60
19286;BME280;9776;50.798;6.430;2023-03-26T07:20:43;98832.34;;;10.61;67.59
19286;BME280;9776;50.798;6.430;2023-03-26T07:23:10;98831.75;;;10.65;67.60
19286;BME280;9776;50.798;6.430;2023-03-26T07:25:40;98832.41;;;10.67;67.65
19286;BME280;9776;50.798;6.430;2023-03-26T07:28:12;98828.13;;;10.66;67.68
19286;BME280;9776;50.798;6.430;2023-03-26T07:30:52;98819.03;;;10.69;67.80
19286;BME280;9776;50.798;6.430;2023-03-26T07:33:29;98816.38;;;10.69;67.99
19286;BME280;9776;50.798;6.430;2023-03-26T07:36:08;98816.38;;;10.69;67.92
19286;BME280;9776;50.798;6.430;2023-03-26T07:38:50;98814.72;;;10.68;67.96
19286;BME280;9776;50.798;6.430;2023-03-26T07:41:24;98807.03;;;10.66;68.13
19286;BME280;9776;50.798;6.430;2023-03-26T07:46:52;98808.47;;;10.69;68.25
19286;BME280;9776;50.798;6.430;2023-03-26T07:49:19;98807.47;;;10.70;67.99
19286;BME280;9776;50.798;6.430;2023-03-26T07:51:48;98801.16;;;10.71;68.09
19286;BME280;9776;50.798;6.430;2023-03-26T07:54:15;98805.22;;;10.67;68.13
19286;BME280;9776;50.798;6.430;2023-03-26T07:56:48;98800.94;;;10.66;68.18
19286;BME280;9776;50.798;6.430;2023-03-26T07:59:21;98790.19;;;10.67;68.09
19286;BME280;9776;50.798;6.430;2023-03-26T08:02:17;98795.19;;;10.62;67.94
19286;BME280;9776;50.798;6.430;2023-03-26T08:04:56;98782.28;;;10.67;68.11
19286;BME280;9776;50.798;6.430;2023-03-26T08:07:40;98778.94;;;10.59;68.14
19286;BME280;9776;50.798;6.430;2023-03-26T08:10:15;98771.31;;;10.49;68.29
19286;BME280;9776;50.798;6.430;2023-03-26T08:12:51;98768.44;;;10.44;68.28
19286;BME280;9776;50.798;6.430;2023-03-26T08:15:25;98768.84;;;10.48;68.42
19286;BME280;9776;50.798;6.430;2023-03-26T08:17:59;98770.06;;;10.45;68.21
19286;BME280;9776;50.798;6.430;2023-03-26T08:20:34;98762.34;;;10.44;68.27
19286;BME280;9776;50.798;6.430;2023-03-26T08:23:13;98754.44;;;10.44;68.01
19286;BME280;9776;50.798;6.430;2023-03-26T08:25:50;98751.41;;;10.47;68.02
19286;BME280;9776;50.798;6.430;2023-03-26T08:28:30;98747.72;;;10.41;67.81
19286;BME280;9776;50.798;6.430;2023-03-26T08:30:58;98751.72;;;10.37;67.86
19286;BME280;9776;50.798;6.430;2023-03-26T08:33:27;98740.59;;;10.20;68.23
19286;BME280;9776;50.798;6.430;2023-03-26T08:35:55;98736.28;;;10.05;68.67
19286;BME280;9776;50.798;6.430;2023-03-26T08:38:23;98741.56;;;10.05;68.79
19286;BME280;9776;50.798;6.430;2023-03-26T08:41:21;98728.59;;;10.03;68.67
19286;BME280;9776;50.798;6.430;2023-03-26T08:47:24;98717.22;;;10.03;68.55
19286;BME280;9776;50.798;6.430;2023-03-26T08:56:27;98714.38;;;10.04;68.72
19286;BME280;9776;50.798;6.430;2023-03-26T08:59:39;98699.22;;;10.06;68.87
19286;BME280;9776;50.798;6.430;2023-03-26T09:08:29;98700.09;;;10.28;68.52
19286;BME280;9776;50.798;6.430;2023-03-26T09:14:22;98690.59;;;10.34;68.72
19286;BME280;9776;50.798;6.430;2023-03-26T09:17:49;98688.63;;;10.36;68.98
19286;BME280;9776;50.798;6.430;2023-03-26T09:20:47;98686.31;;;10.47;68.83
19286;BME280;9776;50.798;6.430;2023-03-26T09:23:51;98677.81;;;10.52;68.73
19286;BME280;9776;50.798;6.430;2023-03-26T09:26:26;98670.34;;;10.55;68.75
19286;BME280;9776;50.798;6.430;2023-03-26T09:35:36;98656.94;;;10.78;68.64
19286;BME280;9776;50.798;6.430;2023-03-26T09:38:10;98658.81;;;10.84;68.71
19286;BME280;9776;50.798;6.430;2023-03-26T09:40:47;98649.47;;;10.88;68.63
19286;BME280;9776;50.798;6.430;2023-03-26T09:46:42;98651.22;;;11.02;68.39
19286;BME280;9776;50.798;6.430;2023-03-26T09:49:25;98644.16;;;11.09;68.17
19286;BME280;9776;50.798;6.430;2023-03-26T09:52:17;98652.00;;;11.30;67.68
19286;BME280;9776;50.798;6.430;2023-03-26T10:00:40;98632.84;;;11.56;66.80
19286;BME280;9776;50.798;6.430;2023-03-26T10:03:29;98636.91;;;11.59;66.32
19286;BME280;9776;50.798;6.430;2023-03-26T10:06:07;98637.91;;;11.58;66.38
19286;BME280;9776;50.798;6.430;2023-03-26T10:08:48;98638.56;;;11.66;66.45
19286;BME280;9776;50.798;6.430;2023-03-26T10:11:22;98639.00;;;11.70;66.28
19286;BME280;9776;50.798;6.430;2023-03-26T10:13:59;98633.53;;;11.71;66.37
19286;BME280;9776;50.798;6.430;2023-03-26T10:16:37;98625.63;;;11.71;66.24
19286;BME280;9776;50.798;6.430;2023-03-26T10:19:20;98621.09;;;11.65;66.34
19286;BME280;9776;50.798;6.430;2023-03-26T10:21:55;98624.53;;;11.59;66.11
19286;BME280;9776;50.798;6.430;2023-03-26T10:24:58;98624.34;;;11.67;65.98
19286;BME280;9776;50.798;6.430;2023-03-26T10:27:38;98620.75;;;11.81;65.66
19286;BME280;9776;50.798;6.430;2023-03-26T10:33:13;98621.44;;;11.56;66.05
19286;BME280;9776;50.798;6.430;2023-03-26T10:35:55;98616.16;;;11.56;66.52
19286;BME280;9776;50.798;6.430;2023-03-26T10:38:35;98622.31;;;11.63;66.52
19286;BME280;9776;50.798;6.430;2023-03-26T10:41:12;98623.53;;;11.67;66.62
19286;BME280;9776;50.798;6.430;2023-03-26T10:44:08;98619.06;;;11.67;66.77
19286;BME280;9776;50.798;6.430;2023-03-26T10:46:59;98621.19;;;11.85;66.24
19286;BME280;9776;50.798;6.430;2023-03-26T10:49:49;98612.84;;;11.88;66.25
19286;BME280;9776;50.798;6.430;2023-03-26T10:52:21;98610.63;;;11.98;65.98
19286;BME280;9776;50.798;6.430;2023-03-26T10:54:54;98621.25;;;12.24;65.48
19286;BME280;9776;50.798;6.430;2023-03-26T10:57:28;98621.28;;;12.50;65.07
19286;BME280;9776;50.798;6.430;2023-03-26T11:00:04;98617.63;;;12.51;64.98
19286;BME280;9776;50.798;6.430;2023-03-26T11:02:42;98622.72;;;12.46;65.15
19286;BME280;9776;50.798;6.430;2023-03-26T11:05:25;98621.50;;;12.29;65.52
19286;BME280;9776;50.798;6.430;2023-03-26T11:07:57;98617.81;;;12.30;65.76
19286;BME280;9776;50.798;6.430;2023-03-26T11:10:32;98629.00;;;12.19;65.73
19286;BME280;9776;50.798;6.430;2023-03-26T11:13:12;98644.97;;;11.85;66.66
19286;BME280;9776;50.798;6.430;2023-03-26T11:15:44;98637.63;;;11.80;66.84
19286;BME280;9776;50.798;6.430;2023-03-26T11:18:17;98636.84;;;11.80;66.52
19286;BME280;9776;50.798;6.430;2023-03-26T11:20:51;98646.44;;;11.94;66.30
19286;BME280;9776;50.798;6.430;2023-03-26T11:23:29;98635.53;;;12.23;65.41
19286;BME280;9776;50.798;6.430;2023-03-26T11:26:06;98640.22;;;12.47;64.19
19286;BME280;9776;50.798;6.430;2023-03-26T11:28:54;98642.88;;;12.61;63.77
19286;BME280;9776;50.798;6.430;2023-03-26T11:31:34;98639.00;;;12.89;62.97
19286;BME280;9776;50.798;6.430;2023-03-26T11:34:09;98645.91;;;13.17;61.99
19286;BME280;9776;50.798;6.430;2023-03-26T11:36:41;98634.50;;;13.16;61.49
19286;BME280;9776;50.798;6.430;2023-03-26T11:39:11;98642.44;;;13.16;61.29
19286;BME280;9776;50.798;6.430;2023-03-26T11:41:40;98640.66;;;13.10;61.28
19286;BME280;9776;50.798;6.430;2023-03-26T11:44:20;98638.38;;;13.20;60.74
19286;BME280;9776;50.798;6.430;2023-03-26T11:46:52;98632.25;;;13.26;60.73
19286;BME280;9776;50.798;6.430;2023-03-26T11:49:24;98633.09;;;13.71;59.85
19286;BME280;9776;50.798;6.430;2023-03-26T11:51:52;98636.28;;;13.93;59.11
19286;BME280;9776;50.798;6.430;2023-03-26T11:54:19;98643.03;;;13.89;58.92
19286;BME280;9776;50.798;6.430;2023-03-26T11:56:47;98641.88;;;13.72;59.32
19286;BME280;9776;50.798;6.430;2023-03-26T11:59:22;98640.78;;;13.41;59.93
19286;BME280;9776;50.798;6.430;2023-03-26T12:01:50;98648.97;;;13.27;60.15
19286;BME280;9776;50.798;6.430;2023-03-26T12:04:25;98646.72;;;13.11;60.80
19286;BME280;9776;50.798;6.430;2023-03-26T12:06:54;98649.78;;;13.07;60.71
19286;BME280;9776;50.798;6.430;2023-03-26T12:09:23;98653.06;;;13.10;60.68
19286;BME280;9776;50.798;6.430;2023-03-26T12:11:53;98650.63;;;13.01;60.76
19286;BME280;9776;50.798;6.430;2023-03-26T12:14:26;98662.81;;;12.96;60.83
19286;BME280;9776;50.798;6.430;2023-03-26T12:16:59;98653.66;;;12.98;61.03
19286;BME280;9776;50.798;6.430;2023-03-26T12:19:34;98653.88;;;13.03;60.75
19286;BME280;9776;50.798;6.430;2023-03-26T12:22:02;98655.50;;;13.18;60.85
19286;BME280;9776;50.798;6.430;2023-03-26T12:24:31;98655.28;;;13.19;60.82
19286;BME280;9776;50.798;6.430;2023-03-26T12:26:59;98660.56;;;13.19;61.24
19286;BME280;9776;50.798;6.430;2023-03-26T12:29:29;98658.34;;;13.16;61.31
19286;BME280;9776;50.798;6.430;2023-03-26T12:32:04;98665.88;;;12.99;61.67
19286;BME280;9776;50.798;6.430;2023-03-26T12:34:32;98663.66;;;12.77;62.48
19286;BME280;9776;50.798;6.430;2023-03-26T12:37:01;98672.16;;;12.52;62.74
19286;BME280;9776;50.798;6.430;2023-03-26T12:39:32;98665.22;;;12.38;63.48
19286;BME280;9776;50.798;6.430;2023-03-26T12:42:00;98667.25;;;12.17;63.90
19286;BME280;9776;50.798;6.430;2023-03-26T12:44:33;98664.16;;;12.00;64.48
19286;BME280;9776;50.798;6.430;2023-03-26T12:47:09;98662.69;;;11.91;64.67
19286;BME280;9776;50.798;6.430;2023-03-26T12:49:39;98666.16;;;11.91;64.82
19286;BME280;9776;50.798;6.430;2023-03-26T12:52:32;98667.56;;;11.87;64.84
19286;BME280;9776;50.798;6.430;2023-03-26T12:55:16;98675.69;;;11.92;64.94
19286;BME280;9776;50.798;6.430;2023-03-26T12:57:53;98677.75;;;11.97;64.80
19286;BME280;9776;50.798;6.430;2023-03-26T13:00:46;98675.72;;;11.99;65.09
19286;BME280;9776;50.798;6.430;2023-03-26T13:03:31;98677.41;;;12.13;64.87
19286;BME280;9776;50.798;6.430;2023-03-26T13:06:14;98680.25;;;12.18;64.82
19286;BME280;9776;50.798;6.430;2023-03-26T13:09:09;98687.97;;;12.13;65.08
19286;BME280;9776;50.798;6.430;2023-03-26T13:11:46;98679.63;;;12.16;65.02
19286;BME280;9776;50.798;6.430;2023-03-26T13:14:31;98685.31;;;12.00;65.59
19286;BME280;9776;50.798;6.430;2023-03-26T13:17:13;98691.56;;;11.86;66.02
19286;BME280;9776;50.798;6.430;2023-03-26T13:19:51;98684.19;;;11.81;66.01
19286;BME280;9776;50.798;6.430;2023-03-26T13:22:25;98685.41;;;11.79;66.07
19286;BME280;9776;50.798;6.430;2023-03-26T13:25:03;98686.22;;;11.79;66.25
19286;BME280;9776;50.798;6.430;2023-03-26T13:27:45;98697.22;;;11.83;65.94
19286;BME280;9776;50.798;6.430;2023-03-26T13:30:24;98697.84;;;11.85;65.90
19286;BME280;9776;50.798;6.430;2023-03-26T13:33:06;98690.09;;;11.77;66.29
19286;BME280;9776;50.798;6.430;2023-03-26T13:35:45;98693.38;;;11.85;65.86
19286;BME280;9776;50.798;6.430;2023-03-26T13:38:18;98692.50;;;11.78;66.02
19286;BME280;9776;50.798;6.430;2023-03-26T13:40:58;98689.97;;;11.64;66.15
19286;BME280;9776;50.798;6.430;2023-03-26T13:43:36;98693.38;;;11.51;66.64
19286;BME280;9776;50.798;6.430;2023-03-26T13:46:15;98693.91;;;11.40;66.63
19286;BME280;9776;50.798;6.430;2023-03-26T13:48:50;98695.66;;;11.26;67.04
19286;BME280;9776;50.798;6.430;2023-03-26T13:51:21;98700.72;;;11.21;67.24
19286;BME280;9776;50.798;6.430;2023-03-26T13:53:51;98699.44;;;11.17;67.32
19286;BME280;9776;50.798;6.430;2023-03-26T13:56:26;98705.38;;;11.19;67.20
19286;BME280;9776;50.798;6.430;2023-03-26T13:59:00;98703.72;;;11.18;67.00
19286;BME280;9776;50.798;6.430;2023-03-26T14:01:30;98696.81;;;11.17;67.36
19286;BME280;9776;50.798;6.430;2023-03-26T14:04:05;98697.56;;;11.11;67.46
19286;BME280;9776;50.798;6.430;2023-03-26T14:06:43;98698.38;;;11.05;67.54
19286;BME280;9776;50.798;6.430;2023-03-26T14:09:18;98707.75;;;11.14;67.63
19286;BME280;9776;50.798;6.430;2023-03-26T14:12:23;98706.13;;;11.13;67.47
19286;BME280;9776;50.798;6.430;2023-03-26T14:14:54;98708.19;;;11.18;67.42
19286;BME280;9776;50.798;6.430;2023-03-26T14:17:27;98709.34;;;11.09;67.75
19286;BME280;9776;50.798;6.430;2023-03-26T14:20:22;98720.81;;;10.95;67.84